createdAt,value
2022-10-15T00:02:14.510Z,14.49
2022-10-15T00:04:42.242Z,14.51
2022-10-15T00:07:10.002Z,14.52
2022-10-15T00:09:37.931Z,14.51
2022-10-15T00:12:06.407Z,14.50
2022-10-15T00:14:34.110Z,14.58
2022-10-15T00:17:03.181Z,14.52
2022-10-15T00:19:31.251Z,14.53
2022-10-15T00:21:59.021Z,14.54
2022-10-15T00:24:26.799Z,14.62
2022-10-15T00:26:54.681Z,14.57
2022-10-15T00:29:22.309Z,14.56
2022-10-15T00:31:54.559Z,14.55
2022-10-15T00:34:23.561Z,14.56
2022-10-15T00:36:51.998Z,14.56
2022-10-15T00:39:19.815Z,14.56
2022-10-15T00:41:48.111Z,14.61
2022-10-15T00:44:51.767Z,14.57
2022-10-15T00:47:24.998Z,14.57
2022-10-15T00:49:58.149Z,14.56
2022-10-15T00:52:31.023Z,14.58
2022-10-15T00:55:06.745Z,14.60
2022-10-15T00:57:35.499Z,14.61
2022-10-15T01:00:08.897Z,14.58
2022-10-15T01:02:36.782Z,14.60
2022-10-15T01:05:06.768Z,14.57
2022-10-15T01:07:34.456Z,14.58
2022-10-15T01:10:02.831Z,14.60
2022-10-15T01:12:44.622Z,14.58
2022-10-15T01:15:18.782Z,14.58
2022-10-15T01:17:48.947Z,14.59
2022-10-15T01:20:35.663Z,14.58
2022-10-15T01:23:26.137Z,14.61
2022-10-15T01:26:08.655Z,14.61
2022-10-15T01:28:47.887Z,14.61
2022-10-15T01:31:25.819Z,14.60
2022-10-15T01:34:02.215Z,14.65
2022-10-15T01:36:38.722Z,14.61
2022-10-15T01:39:15.479Z,14.63
2022-10-15T01:41:47.795Z,14.60
2022-10-15T01:44:21.850Z,14.62
2022-10-15T01:47:15.362Z,14.63
2022-10-15T01:49:46.595Z,14.62
2022-10-15T01:52:19.233Z,14.62
2022-10-15T01:54:49.245Z,14.61
2022-10-15T01:57:19.118Z,14.64
2022-10-15T01:59:47.245Z,14.62
2022-10-15T02:02:17.701Z,14.61
2022-10-15T02:04:46.537Z,14.60
2022-10-15T02:07:25.634Z,14.59
2022-10-15T02:10:02.232Z,14.59
2022-10-15T02:12:42.122Z,14.59
2022-10-15T02:15:16.578Z,14.57
2022-10-15T02:17:58.656Z,14.56
2022-10-15T02:20:35.087Z,14.56
2022-10-15T02:23:09.132Z,14.56
2022-10-15T02:25:40.457Z,14.58
2022-10-15T02:28:09.859Z,14.58
2022-10-15T02:30:40.070Z,14.56
2022-10-15T02:33:13.250Z,14.55
2022-10-15T02:35:43.935Z,14.57
2022-10-15T02:38:15.354Z,14.57
2022-10-15T02:40:44.926Z,14.56
2022-10-15T02:43:16.215Z,14.56
2022-10-15T02:45:43.947Z,14.55
2022-10-15T02:48:13.141Z,14.53
2022-10-15T02:50:40.795Z,14.55
2022-10-15T02:53:08.728Z,14.54
2022-10-15T02:55:37.247Z,14.55
2022-10-15T02:58:04.940Z,14.55
2022-10-15T03:00:32.824Z,14.56
2022-10-15T03:03:00.853Z,14.55
2022-10-15T03:05:30.937Z,14.56
2022-10-15T03:08:01.008Z,14.57
2022-10-15T03:10:30.788Z,14.56
2022-10-15T03:13:03.434Z,14.58
2022-10-15T03:15:32.156Z,14.57
2022-10-15T03:18:00.150Z,14.53
2022-10-15T03:20:27.859Z,14.52
2022-10-15T03:22:57.093Z,14.52
2022-10-15T03:25:24.994Z,14.53
2022-10-15T03:28:00.777Z,14.51
2022-10-15T03:30:37.140Z,14.52
2022-10-15T03:33:06.109Z,14.51
2022-10-15T03:35:34.714Z,14.48
2022-10-15T03:38:03.839Z,14.48
2022-10-15T03:40:32.195Z,14.44
2022-10-15T03:43:11.996Z,14.41
2022-10-15T03:45:39.884Z,14.39
2022-10-15T03:48:22.693Z,14.38
2022-10-15T03:50:50.359Z,14.37
2022-10-15T03:53:19.375Z,14.37
2022-10-15T03:55:47.344Z,14.38
2022-10-15T03:58:16.233Z,14.38
2022-10-15T04:00:50.799Z,14.40
2022-10-15T04:03:18.634Z,14.41
2022-10-15T04:05:53.864Z,14.37
2022-10-15T04:08:26.372Z,14.37
2022-10-15T04:10:54.170Z,14.36
2022-10-15T04:13:21.887Z,14.33
2022-10-15T04:15:49.518Z,14.30
2022-10-15T04:18:17.235Z,14.28
2022-10-15T04:20:46.059Z,14.28
2022-10-15T04:23:21.634Z,14.31
2022-10-15T04:26:09.445Z,14.35
2022-10-15T04:28:37.459Z,14.34
2022-10-15T04:31:06.322Z,14.34
2022-10-15T04:33:35.019Z,14.31
2022-10-15T04:36:04.018Z,14.29
2022-10-15T04:39:09.686Z,14.31
2022-10-15T04:41:46.233Z,14.31
2022-10-15T04:44:16.770Z,14.31
2022-10-15T04:46:51.042Z,14.30
2022-10-15T04:49:32.657Z,14.30
2022-10-15T04:52:03.158Z,14.28
2022-10-15T04:54:37.559Z,14.31
2022-10-15T04:57:07.951Z,14.33
2022-10-15T04:59:36.542Z,14.32
2022-10-15T05:02:22.701Z,14.32
2022-10-15T05:04:56.150Z,14.35
2022-10-15T05:07:24.102Z,14.38
2022-10-15T05:09:53.602Z,14.39
2022-10-15T05:12:23.402Z,14.40
2022-10-15T05:14:51.161Z,14.38
2022-10-15T05:17:25.195Z,14.37
2022-10-15T05:19:55.306Z,14.37
2022-10-15T05:22:27.948Z,14.36
2022-10-15T05:24:59.651Z,14.36
2022-10-15T05:27:31.510Z,14.38
2022-10-15T05:30:00.259Z,14.39
2022-10-15T05:32:37.165Z,14.40
2022-10-15T05:35:06.383Z,14.41
2022-10-15T05:37:49.815Z,14.40
2022-10-15T05:40:21.215Z,14.38
2022-10-15T05:43:03.813Z,14.37
2022-10-15T05:45:31.917Z,14.38
2022-10-15T05:48:05.424Z,14.42
2022-10-15T05:50:33.507Z,14.42
2022-10-15T05:53:04.957Z,14.39
2022-10-15T05:55:54.096Z,14.45
2022-10-15T05:58:25.803Z,14.46
2022-10-15T06:00:56.871Z,14.43
2022-10-15T06:03:25.479Z,14.44
2022-10-15T06:05:53.606Z,14.45
2022-10-15T06:08:27.617Z,14.47
2022-10-15T06:10:55.880Z,14.45
2022-10-15T06:15:52.642Z,14.43
2022-10-15T06:18:20.334Z,14.40
2022-10-15T06:20:52.643Z,14.37
2022-10-15T06:23:21.430Z,14.38
2022-10-15T06:25:49.432Z,14.39
2022-10-15T06:28:17.525Z,14.41
2022-10-15T06:30:46.672Z,14.41
2022-10-15T06:33:16.040Z,14.45
2022-10-15T06:35:43.702Z,14.54
2022-10-15T06:38:11.495Z,14.54
2022-10-15T06:40:39.589Z,14.55
2022-10-15T06:43:08.932Z,14.59
2022-10-15T06:45:38.899Z,14.58
2022-10-15T06:48:12.785Z,14.56
2022-10-15T06:50:40.713Z,14.52
2022-10-15T06:53:08.567Z,14.51
2022-10-15T06:55:36.747Z,14.52
2022-10-15T06:58:04.369Z,14.52
2022-10-15T07:00:32.226Z,14.53
2022-10-15T07:03:05.480Z,14.54
2022-10-15T07:05:35.602Z,14.56
2022-10-15T07:08:03.370Z,14.56
2022-10-15T07:10:31.366Z,14.55
2022-10-15T07:13:01.288Z,14.56
2022-10-15T07:15:29.625Z,14.57
2022-10-15T07:18:01.294Z,14.61
2022-10-15T07:20:30.282Z,14.63
2022-10-15T07:23:03.020Z,14.65
2022-10-15T07:25:31.984Z,14.66
2022-10-15T07:27:59.713Z,14.69
2022-10-15T07:30:28.457Z,14.72
2022-10-15T07:32:57.018Z,14.75
2022-10-15T07:35:24.991Z,14.78
2022-10-15T07:37:52.703Z,14.77
2022-10-15T07:40:22.109Z,14.80
2022-10-15T07:42:54.504Z,14.80
2022-10-15T07:45:23.165Z,14.82
2022-10-15T07:47:50.854Z,14.84
2022-10-15T07:50:18.913Z,14.80
2022-10-15T07:52:47.554Z,14.79
2022-10-15T07:55:15.450Z,14.80
2022-10-15T07:57:44.690Z,14.80
2022-10-15T08:00:13.445Z,14.85
2022-10-15T08:02:41.420Z,14.87
2022-10-15T08:05:09.845Z,14.91
2022-10-15T08:07:37.483Z,14.94
2022-10-15T08:10:13.325Z,14.97
2022-10-15T08:12:40.979Z,15.00
2022-10-15T08:15:10.828Z,15.02
2022-10-15T08:17:38.547Z,15.08
2022-10-15T08:20:07.510Z,15.11
2022-10-15T08:22:35.558Z,15.13
2022-10-15T08:25:03.215Z,15.19
2022-10-15T08:27:30.957Z,15.27
2022-10-15T08:29:58.731Z,15.33
2022-10-15T08:32:27.788Z,15.43
2022-10-15T08:34:55.427Z,15.58
2022-10-15T08:37:23.084Z,15.65
2022-10-15T08:39:50.733Z,15.64
2022-10-15T08:42:22.683Z,15.69
2022-10-15T08:44:55.562Z,15.66
2022-10-15T08:47:33.575Z,15.80
2022-10-15T08:50:03.335Z,16.03
2022-10-15T08:52:42.757Z,16.22
2022-10-15T08:55:12.781Z,16.36
2022-10-15T08:57:46.783Z,16.53
2022-10-15T09:00:20.353Z,16.62
2022-10-15T09:02:58.427Z,16.63
2022-10-15T09:05:33.050Z,16.63
2022-10-15T09:08:11.758Z,16.75
2022-10-15T09:10:46.703Z,16.59
2022-10-15T09:13:25.339Z,16.45
2022-10-15T09:15:58.184Z,16.36
2022-10-15T09:18:32.655Z,16.22
2022-10-15T09:21:03.156Z,16.29
2022-10-15T09:23:30.927Z,16.23
2022-10-15T09:26:04.913Z,16.24
2022-10-15T09:28:41.938Z,16.18
2022-10-15T09:31:14.148Z,16.16
2022-10-15T09:33:48.366Z,16.12
2022-10-15T09:36:24.933Z,16.06
2022-10-15T09:39:04.158Z,16.03
2022-10-15T09:41:47.134Z,16.05
2022-10-15T09:44:19.784Z,16.06
2022-10-15T09:46:51.299Z,16.07
2022-10-15T09:49:24.592Z,16.07
2022-10-15T09:52:03.642Z,16.15
2022-10-15T09:54:42.398Z,16.15
2022-10-15T09:57:13.614Z,16.27
2022-10-15T09:59:53.907Z,16.27
2022-10-15T10:02:23.918Z,16.36
2022-10-15T10:04:54.610Z,16.43
2022-10-15T10:07:31.297Z,16.72
2022-10-15T10:10:01.739Z,16.69
2022-10-15T10:12:33.549Z,16.66
2022-10-15T10:15:03.281Z,16.61
2022-10-15T10:17:31.810Z,16.59
2022-10-15T10:20:19.949Z,16.56
2022-10-15T10:22:51.497Z,16.53
2022-10-15T10:25:32.614Z,16.49
2022-10-15T10:28:06.294Z,16.44
2022-10-15T10:30:37.883Z,16.37
2022-10-15T10:33:06.532Z,16.39
2022-10-15T10:35:44.812Z,16.37
2022-10-15T10:38:20.819Z,16.36
2022-10-15T10:40:51.723Z,16.36
2022-10-15T10:43:24.567Z,16.36
2022-10-15T10:45:58.598Z,16.65
2022-10-15T10:48:28.639Z,16.94
2022-10-15T10:51:12.884Z,16.94
2022-10-15T10:53:49.875Z,16.92
2022-10-15T10:56:22.881Z,16.79
2022-10-15T10:58:56.908Z,16.73
2022-10-15T11:01:24.809Z,16.63
2022-10-15T11:03:52.600Z,16.69
2022-10-15T11:06:56.937Z,16.80
2022-10-15T11:09:41.680Z,16.67
2022-10-15T11:12:26.211Z,16.72
2022-10-15T11:14:58.708Z,16.78
2022-10-15T11:17:43.911Z,16.72
2022-10-15T11:20:31.316Z,16.95
2022-10-15T11:23:27.635Z,17.05
2022-10-15T11:26:04.060Z,17.03
2022-10-15T11:28:48.930Z,17.00
2022-10-15T11:31:27.345Z,17.03
2022-10-15T11:34:06.811Z,17.00
2022-10-15T11:36:48.433Z,16.99
2022-10-15T11:39:43.503Z,17.22
2022-10-15T11:42:21.218Z,17.17
2022-10-15T11:45:11.364Z,17.13
2022-10-15T11:47:48.965Z,17.32
2022-10-15T11:50:29.860Z,17.25
2022-10-15T11:53:25.023Z,17.25
2022-10-15T11:56:03.220Z,17.10
2022-10-15T11:58:35.641Z,17.12
2022-10-15T12:01:10.470Z,17.25
2022-10-15T12:03:46.783Z,17.35
2022-10-15T12:06:19.760Z,17.47
2022-10-15T12:08:49.168Z,17.46
2022-10-15T12:11:32.276Z,17.65
2022-10-15T12:14:03.744Z,17.80
2022-10-15T12:16:37.995Z,17.91
2022-10-15T12:19:14.147Z,18.01
2022-10-15T12:21:46.083Z,18.13
2022-10-15T12:24:53.517Z,18.30
2022-10-15T12:27:30.409Z,18.13
2022-10-15T12:30:22.180Z,18.02
2022-10-15T12:32:50.842Z,18.01
2022-10-15T12:35:38.019Z,17.89
2022-10-15T12:38:27.874Z,17.98
2022-10-15T12:41:02.414Z,17.97
2022-10-15T12:43:37.488Z,18.14
2022-10-15T12:46:08.929Z,18.33
2022-10-15T12:48:39.735Z,18.35
2022-10-15T12:51:41.323Z,18.36
2022-10-15T12:54:33.904Z,18.33
2022-10-15T12:57:04.746Z,18.26
2022-10-15T12:59:59.259Z,18.19
2022-10-15T13:02:36.585Z,18.29
2022-10-15T13:05:05.057Z,18.02
2022-10-15T13:07:35.910Z,17.97
2022-10-15T13:10:04.120Z,18.00
2022-10-15T13:12:32.908Z,17.99
2022-10-15T13:15:06.307Z,17.85
2022-10-15T13:17:34.538Z,17.85
2022-10-15T13:20:07.769Z,17.89
2022-10-15T13:22:37.178Z,17.83
2022-10-15T13:25:05.663Z,17.81
2022-10-15T13:27:37.391Z,17.74
2022-10-15T13:30:12.695Z,17.72
2022-10-15T13:32:46.653Z,17.70
2022-10-15T13:35:19.244Z,17.73
2022-10-15T13:37:47.257Z,17.84
2022-10-15T13:40:21.508Z,18.14
2022-10-15T13:43:00.173Z,17.90
2022-10-15T13:45:30.161Z,17.87
2022-10-15T13:47:57.979Z,17.76
2022-10-15T13:50:28.041Z,17.84
2022-10-15T13:52:59.768Z,17.80
2022-10-15T13:55:29.550Z,17.76
2022-10-15T13:58:01.871Z,17.85
2022-10-15T14:00:35.263Z,17.76
2022-10-15T14:03:24.497Z,17.71
2022-10-15T14:05:54.408Z,17.63
2022-10-15T14:08:25.679Z,17.59
2022-10-15T14:10:55.248Z,17.62
2022-10-15T14:13:23.294Z,17.69
2022-10-15T14:18:33.670Z,17.96
2022-10-15T14:21:02.765Z,17.93
2022-10-15T14:23:30.786Z,17.90
2022-10-15T14:26:02.066Z,17.83
2022-10-15T14:28:33.683Z,17.80
2022-10-15T14:31:03.575Z,17.89
2022-10-15T14:33:44.016Z,17.84
2022-10-15T14:36:31.300Z,17.83
2022-10-15T14:39:28.153Z,17.87
2022-10-15T14:41:57.818Z,17.80
2022-10-15T14:44:25.625Z,17.80
2022-10-15T14:47:03.235Z,17.76
2022-10-15T14:49:34.475Z,17.77
2022-10-15T14:52:07.077Z,17.67
2022-10-15T14:54:39.144Z,17.61
2022-10-15T14:57:18.066Z,17.55
2022-10-15T14:59:45.802Z,17.54
2022-10-15T15:02:17.462Z,17.45
2022-10-15T15:05:06.547Z,17.45
2022-10-15T15:07:34.637Z,17.38
2022-10-15T15:10:02.471Z,17.38
2022-10-15T15:12:31.520Z,17.41
2022-10-15T15:15:00.209Z,17.30
2022-10-15T15:17:31.311Z,17.27
2022-10-15T15:19:59.217Z,17.30
2022-10-15T15:22:30.753Z,17.28
2022-10-15T15:25:01.455Z,17.19
2022-10-15T15:27:31.183Z,17.22
2022-10-15T15:30:00.394Z,17.19
2022-10-15T15:32:29.809Z,17.21
2022-10-15T15:34:58.967Z,17.20
2022-10-15T15:37:27.838Z,17.17
2022-10-15T15:39:56.341Z,17.12
2022-10-15T15:42:26.248Z,17.13
2022-10-15T15:44:54.276Z,17.06
2022-10-15T15:47:22.238Z,17.08
2022-10-15T15:49:51.440Z,17.19
2022-10-15T15:52:19.383Z,17.10
2022-10-15T15:54:47.724Z,17.10
2022-10-15T15:57:15.868Z,17.09
2022-10-15T15:59:43.658Z,16.99
2022-10-15T16:02:13.222Z,16.94
2022-10-15T16:04:41.530Z,16.99
2022-10-15T16:07:13.369Z,16.89
2022-10-15T16:09:42.082Z,16.88
2022-10-15T16:12:10.773Z,16.90
2022-10-15T16:14:38.738Z,16.77
2022-10-15T16:17:06.797Z,16.89
2022-10-15T16:19:34.590Z,16.75
2022-10-15T16:22:02.801Z,16.79
2022-10-15T16:24:32.380Z,16.77
2022-10-15T16:27:00.321Z,16.78
2022-10-15T16:29:28.117Z,16.70
2022-10-15T16:31:55.927Z,16.74
2022-10-15T16:34:24.900Z,16.87
2022-10-15T16:36:52.629Z,16.92
2022-10-15T16:39:20.768Z,16.90
2022-10-15T16:41:49.908Z,16.75
2022-10-15T16:44:17.786Z,16.81
2022-10-15T16:46:45.678Z,16.77
2022-10-15T16:49:13.336Z,16.85
2022-10-15T16:51:43.525Z,16.80
2022-10-15T16:54:13.761Z,16.70
2022-10-15T16:56:41.549Z,16.71
2022-10-15T16:59:10.653Z,16.69
2022-10-15T17:01:38.549Z,16.65
2022-10-15T17:04:06.281Z,16.73
2022-10-15T17:06:33.988Z,16.65
2022-10-15T17:09:04.181Z,16.64
2022-10-15T17:11:34.561Z,16.64
2022-10-15T17:14:05.225Z,16.66
2022-10-15T17:16:37.389Z,16.63
2022-10-15T17:19:05.668Z,16.73
2022-10-15T17:21:33.548Z,16.75
2022-10-15T17:24:02.776Z,16.71
2022-10-15T17:26:36.014Z,16.71
2022-10-15T17:29:04.253Z,16.73
2022-10-15T17:31:32.316Z,16.69
2022-10-15T17:34:04.392Z,16.67
2022-10-15T17:36:33.422Z,16.65
2022-10-15T17:39:01.169Z,16.65
2022-10-15T17:41:30.898Z,16.67
2022-10-15T17:43:58.812Z,16.70
2022-10-15T17:46:29.016Z,16.69
2022-10-15T17:48:57.962Z,16.69
2022-10-15T17:51:29.607Z,16.74
2022-10-15T17:54:00.927Z,16.94
2022-10-15T17:56:31.359Z,16.84
2022-10-15T17:58:59.925Z,16.85
2022-10-15T18:01:56.321Z,16.86
2022-10-15T18:04:18.584Z,16.96
2022-10-15T18:06:47.965Z,16.88
2022-10-15T18:09:24.573Z,16.77
2022-10-15T18:11:56.600Z,16.69
2022-10-15T18:14:29.079Z,16.66
2022-10-15T18:16:57.176Z,16.65
2022-10-15T18:19:26.420Z,16.65
2022-10-15T18:21:56.566Z,16.63
2022-10-15T18:24:25.102Z,16.63
2022-10-15T18:26:53.972Z,16.60
2022-10-15T18:29:25.237Z,16.62
2022-10-15T18:31:57.406Z,16.63
2022-10-15T18:34:27.924Z,16.59
2022-10-15T18:36:57.424Z,16.59
2022-10-15T18:39:26.051Z,16.59
2022-10-15T18:41:54.254Z,16.57
2022-10-15T18:44:23.569Z,16.62
2022-10-15T18:46:52.506Z,16.51
2022-10-15T18:49:21.267Z,16.40
2022-10-15T18:51:51.565Z,16.41
2022-10-15T18:54:20.966Z,16.32
2022-10-15T18:56:48.892Z,16.24
2022-10-15T18:59:22.958Z,16.21
2022-10-15T19:01:53.124Z,16.19
2022-10-15T19:04:23.270Z,16.18
2022-10-15T19:06:53.266Z,16.19
2022-10-15T19:09:24.175Z,16.27
2022-10-15T19:11:54.420Z,16.30
2022-10-15T19:14:23.054Z,16.28
2022-10-15T19:16:51.044Z,16.27
2022-10-15T19:19:21.111Z,16.33
2022-10-15T19:21:49.804Z,16.25
2022-10-15T19:24:20.288Z,16.25
2022-10-15T19:26:50.434Z,16.20
2022-10-15T19:29:18.819Z,16.35
2022-10-15T19:31:49.602Z,16.23
2022-10-15T19:34:17.582Z,16.25
2022-10-15T19:36:47.424Z,16.28
2022-10-15T19:39:17.656Z,16.24
2022-10-15T19:41:46.373Z,16.19
2022-10-15T19:44:17.947Z,16.15
2022-10-15T19:46:46.725Z,16.15
2022-10-15T19:49:15.304Z,16.14
2022-10-15T19:51:43.956Z,16.12
2022-10-15T19:54:11.730Z,16.11
2022-10-15T19:56:39.906Z,16.07
2022-10-15T19:59:07.972Z,16.02
2022-10-15T20:01:37.382Z,16.02
2022-10-15T20:04:07.115Z,16.02
2022-10-15T20:06:38.189Z,15.99
2022-10-15T20:09:06.973Z,15.96
2022-10-15T20:11:35.341Z,15.97
2022-10-15T20:14:03.627Z,15.90
2022-10-15T20:16:33.169Z,15.90
2022-10-15T20:19:04.464Z,15.85
2022-10-15T20:21:32.816Z,15.87
2022-10-15T20:24:03.950Z,15.85
2022-10-15T20:26:32.193Z,15.84
2022-10-15T20:29:00.169Z,15.79
2022-10-15T20:31:32.432Z,15.76
2022-10-15T20:34:01.727Z,15.75
2022-10-15T20:36:30.959Z,15.72
2022-10-15T20:39:00.696Z,15.68
2022-10-15T20:41:29.198Z,15.60
2022-10-15T20:43:57.703Z,15.57
2022-10-15T20:46:29.001Z,15.51
2022-10-15T20:49:02.214Z,15.45
2022-10-15T20:51:34.987Z,15.39
2022-10-15T20:54:03.410Z,15.39
2022-10-15T20:56:31.454Z,15.36
2022-10-15T20:58:59.212Z,15.34
2022-10-15T21:01:27.058Z,15.33
2022-10-15T21:03:54.822Z,15.34
2022-10-15T21:06:22.694Z,15.37
2022-10-15T21:08:51.761Z,15.33
2022-10-15T21:11:19.622Z,15.35
2022-10-15T21:13:47.735Z,15.38
2022-10-15T21:16:15.676Z,15.44
2022-10-15T21:18:43.919Z,15.45
2022-10-15T21:21:14.125Z,15.48
2022-10-15T21:23:43.114Z,15.49
2022-10-15T21:26:14.073Z,15.52
2022-10-15T21:28:42.801Z,15.47
2022-10-15T21:31:12.662Z,15.43
2022-10-15T21:33:44.278Z,15.40
2022-10-15T21:36:14.400Z,15.40
2022-10-15T21:38:43.305Z,15.40
2022-10-15T21:41:12.489Z,15.40
2022-10-15T21:43:40.296Z,15.41
2022-10-15T21:46:09.868Z,15.44
2022-10-15T21:48:38.439Z,15.44
2022-10-15T21:51:06.708Z,15.49
2022-10-15T21:53:35.953Z,15.51
2022-10-15T21:56:08.426Z,15.50
2022-10-15T21:58:38.741Z,15.50
2022-10-15T22:01:12.654Z,15.49
2022-10-15T22:03:43.116Z,15.52
2022-10-15T22:06:11.341Z,15.54
2022-10-15T22:08:39.261Z,15.55
2022-10-15T22:11:12.152Z,15.54
2022-10-15T22:13:42.095Z,15.54
2022-10-15T22:16:11.011Z,15.53
2022-10-15T22:18:39.638Z,15.52
2022-10-15T22:21:15.170Z,15.56
2022-10-15T22:23:44.685Z,15.55
2022-10-15T22:26:12.992Z,15.54
2022-10-15T22:28:42.865Z,15.56
2022-10-15T22:31:12.538Z,15.55
2022-10-15T22:33:41.686Z,15.54
2022-10-15T22:36:14.189Z,15.55
2022-10-15T22:38:42.407Z,15.57
2022-10-15T22:41:10.747Z,15.57
2022-10-15T22:43:38.797Z,15.52
2022-10-15T22:46:08.516Z,15.52
2022-10-15T22:48:37.126Z,15.47
2022-10-15T22:51:06.800Z,15.48
2022-10-15T22:53:35.006Z,15.51
2022-10-15T22:56:04.155Z,15.50
2022-10-15T22:58:33.115Z,15.53
2022-10-15T23:01:10.136Z,15.54
2022-10-15T23:03:39.020Z,15.56
2022-10-15T23:06:06.930Z,15.60
2022-10-15T23:08:35.747Z,15.60
2022-10-15T23:11:09.617Z,15.60
2022-10-15T23:13:38.088Z,15.59
2022-10-15T23:16:13.156Z,15.60
2022-10-15T23:18:41.267Z,15.58
2022-10-15T23:21:14.307Z,15.58
2022-10-15T23:23:42.870Z,15.58
2022-10-15T23:26:12.611Z,15.60
2022-10-15T23:28:40.358Z,15.59
2022-10-15T23:31:08.626Z,15.58
2022-10-15T23:33:37.646Z,15.55
2022-10-15T23:36:06.117Z,15.47
2022-10-15T23:38:34.085Z,15.46
2022-10-15T23:41:02.558Z,15.35
2022-10-15T23:43:31.046Z,15.28
2022-10-15T23:45:59.355Z,15.14
2022-10-15T23:48:27.530Z,14.98
2022-10-15T23:51:00.945Z,14.91
2022-10-15T23:53:32.563Z,14.86
2022-10-15T23:56:02.408Z,14.82
2022-10-15T23:58:31.998Z,14.85
